Time;durP1;ratioP1;P1;durP2;ratioP2;P2;SDS_P1;SDS_P2;PMS_P1;PMS_P2;Temp;Humidity;BMP_temperature;BMP_pressure;BME280_temperature;BME280_humidity;BME280_pressure;Samples;Min_cycle;Max_cycle;Signal;HPM_P1;HPM_P2
2021/11/05 00:00:55;;;;;;;3.98;2.42;;;;;;;9.41;64.73;99561.79;2230755;79;32283;-69
2021/11/05 00:03:57;;;;;;;3.52;2.52;;;;;;;9.41;64.73;99561.30;2231850;79;33202;-64
2021/11/05 00:07:03;;;;;;;4.42;2.72;;;;;;;9.41;64.58;99566.64;2251961;78;28829;-66
2021/11/05 00:10:03;;;;;;;5.10;3.25;;;;;;;9.41;64.71;99579.16;2234428;78;27653;-64
2021/11/05 00:13:07;;;;;;;4.78;3.45;;;;;;;9.39;64.58;99588.59;2237411;78;28730;-65
2021/11/05 00:16:09;;;;;;;7.25;4.67;;;;;;;9.37;64.59;99583.80;2234855;79;31878;-64
2021/11/05 00:19:11;;;;;;;4.75;2.85;;;;;;;9.37;64.69;99589.14;2213820;77;34290;-69
2021/11/05 00:22:12;;;;;;;4.20;2.90;;;;;;;9.36;64.59;99590.09;2156321;81;28891;-69
2021/11/05 00:25:14;;;;;;;4.15;2.95;;;;;;;9.36;64.71;99590.58;2188659;81;27683;-68
2021/11/05 00:28:16;;;;;;;4.45;2.75;;;;;;;9.34;64.70;99599.16;2152465;81;29970;-69
2021/11/05 00:31:18;;;;;;;4.28;2.77;;;;;;;9.34;64.73;99604.05;2188725;81;32170;-69
2021/11/05 00:34:20;;;;;;;4.58;2.72;;;;;;;9.33;64.62;99608.12;2147498;82;33321;-68
2021/11/05 00:37:21;;;;;;;4.10;2.95;;;;;;;9.31;64.54;99604.20;2187271;80;29904;-68
2021/11/05 00:40:25;;;;;;;3.90;2.67;;;;;;;9.28;64.46;99607.89;2183975;81;27701;-66
2021/11/05 00:43:27;;;;;;;13.53;2.83;;;;;;;9.27;64.54;99616.86;2159791;82;28740;-67
2021/11/05 00:46:28;;;;;;;5.03;2.65;;;;;;;9.27;64.61;99620.02;2158154;82;31228;-69
2021/11/05 00:49:30;;;;;;;4.35;3.08;;;;;;;9.27;64.54;99620.87;2160296;81;32728;-65
2021/11/05 00:52:32;;;;;;;3.08;2.70;;;;;;;9.25;64.52;99624.12;2159110;81;29970;-68
2021/11/05 00:55:34;;;;;;;4.70;3.02;;;;;;;9.23;64.48;99634.03;2187225;81;28071;-69
2021/11/05 00:58:36;;;;;;;4.17;2.92;;;;;;;9.21;64.56;99637.72;2162053;81;29080;-67
2021/11/05 01:01:38;;;;;;;3.22;2.40;;;;;;;9.21;64.54;99649.75;2172204;81;31930;-67
2021/11/05 01:04:40;;;;;;;3.37;2.52;;;;;;;9.20;64.60;99647.56;2160344;81;33836;-68
2021/11/05 01:07:43;;;;;;;3.80;3.00;;;;;;;9.19;64.54;99647.62;2162327;81;29144;-68
2021/11/05 01:10:45;;;;;;;3.25;2.75;;;;;;;9.18;64.46;99646.78;2160259;82;27585;-67
2021/11/05 01:13:47;;;;;;;3.83;2.80;;;;;;;9.19;64.46;99638.27;2158965;82;29896;-68
2021/11/05 01:16:49;;;;;;;4.10;3.08;;;;;;;9.18;64.47;99646.78;2188259;81;32397;-68
2021/11/05 01:19:51;;;;;;;4.00;3.20;;;;;;;9.17;64.47;99649.05;2152340;81;32951;-67
2021/11/05 01:22:53;;;;;;;4.92;3.22;;;;;;;9.17;64.42;99651.73;2192107;81;29608;-69
2021/11/05 01:25:55;;;;;;;5.20;2.98;;;;;;;9.18;64.47;99640.59;2191063;81;27601;-67
2021/11/05 01:28:57;;;;;;;4.05;3.45;;;;;;;9.16;64.30;99646.48;2169358;81;29067;-67
2021/11/05 01:31:59;;;;;;;5.65;3.50;;;;;;;9.15;64.43;99648.27;2228568;79;30893;-69
2021/11/05 01:35:03;;;;;;;4.62;3.10;;;;;;;9.16;64.47;99643.32;2169199;81;34153;-68
2021/11/05 01:38:06;;;;;;;3.22;2.75;;;;;;;9.16;64.44;99650.00;2157911;81;29707;-67
2021/11/05 01:41:09;;;;;;;4.40;3.35;;;;;;;9.16;64.34;99664.70;2228903;79;27597;-68
2021/11/05 01:44:11;;;;;;;4.28;3.10;;;;;;;9.16;64.33;99663.36;2161699;81;29033;-67
2021/11/05 01:47:14;;;;;;;4.83;3.25;;;;;;;9.15;64.26;99660.30;2152691;82;31179;-68
2021/11/05 01:50:16;;;;;;;4.85;3.30;;;;;;;9.14;64.31;99673.27;2186091;81;34180;-67
2021/11/05 01:53:18;;;;;;;4.62;3.47;;;;;;;9.15;64.30;99676.33;2212702;79;29005;-68
2021/11/05 01:56:20;;;;;;;5.40;3.65;;;;;;;9.15;64.24;99673.66;2150744;82;27608;-67
2021/11/05 01:59:30;;;;;;;5.33;3.85;;;;;;;9.14;64.21;99685.30;2213642;79;29059;-68
2021/11/05 02:02:32;;;;;;;5.75;3.50;;;;;;;9.14;64.27;99689.30;2194149;79;31107;-67
2021/11/05 02:05:36;;;;;;;8.15;3.77;;;;;;;9.14;64.20;99692.47;2190727;81;34120;-66
2021/11/05 02:08:40;;;;;;;5.87;3.30;;;;;;;9.12;64.03;99699.20;2163506;81;29864;-67
2021/11/05 02:11:43;;;;;;;5.20;3.03;;;;;;;9.11;64.14;99706.38;2229001;79;27589;-68
2021/11/05 02:14:47;;;;;;;5.42;3.87;;;;;;;9.11;64.21;99705.49;2159391;81;28658;-68
2021/11/05 02:17:49;;;;;;;6.83;3.77;;;;;;;9.12;64.16;99724.59;2188767;80;31014;-67
2021/11/05 02:20:55;;;;;;;7.50;4.67;;;;;;;9.10;64.07;99727.36;2146230;82;34115;-67
2021/11/05 02:23:57;;;;;;;11.38;4.67;;;;;;;9.10;64.08;99732.70;2146548;82;30189;-67
2021/11/05 02:26:59;;;;;;;6.65;4.50;;;;;;;9.08;64.19;99735.92;2148587;81;27650;-66
2021/11/05 02:30:05;;;;;;;7.17;4.85;;;;;;;9.07;64.07;99729.34;2174398;81;28750;-66
2021/11/05 02:33:08;;;;;;;6.08;4.62;;;;;;;9.04;64.08;99737.51;2135922;83;31241;-66
2021/11/05 02:36:10;;;;;;;7.47;5.15;;;;;;;8.97;63.97;99741.83;2155240;82;34000;-66
2021/11/05 02:39:12;;;;;;;6.55;4.75;;;;;;;8.89;63.97;99741.83;2166334;82;28898;-67
2021/11/05 02:42:14;;;;;;;5.85;4.83;;;;;;;8.80;63.99;99740.50;2189550;81;27677;-67
2021/11/05 02:45:16;;;;;;;5.92;4.60;;;;;;;8.71;64.03;99757.85;2155297;82;30075;-67
2021/11/05 02:48:18;;;;;;;5.55;4.35;;;;;;;8.64;64.23;99765.80;2185913;80;31867;-65
2021/11/05 02:51:19;;;;;;;7.28;5.22;;;;;;;8.59;64.34;99767.38;2147923;82;33484;-66
2021/11/05 02:54:22;;;;;;;8.93;5.42;;;;;;;8.59;64.50;99771.83;2149795;81;29935;-67
2021/11/05 02:57:23;;;;;;;7.28;5.08;;;;;;;8.58;64.53;99779.45;2148509;82;27586;-66
2021/11/05 03:00:25;;;;;;;6.95;5.35;;;;;;;8.56;64.51;99775.98;2147856;82;30846;-68
2021/11/05 03:03:27;;;;;;;6.87;5.22;;;;;;;8.57;64.60;99776.38;2177326;81;31422;-67
2021/11/05 03:06:39;;;;;;;8.03;5.65;;;;;;;8.57;64.58;99790.61;2170273;81;33327;-67
2021/11/05 03:09:42;;;;;;;7.92;5.70;;;;;;;8.59;64.68;99795.86;2154237;81;29481;-67
2021/11/05 03:12:45;;;;;;;7.37;5.70;;;;;;;8.60;64.67;99793.59;2148460;81;27692;-67
2021/11/05 03:15:47;;;;;;;7.85;5.67;;;;;;;8.61;64.64;99793.50;2149866;81;28547;-67
2021/11/05 03:18:49;;;;;;;8.05;6.15;;;;;;;8.62;64.63;99795.71;2180637;80;31919;-67
2021/11/05 03:21:51;;;;;;;9.68;5.62;;;;;;;8.62;64.62;99801.91;2186894;81;34410;-66
2021/11/05 03:24:53;;;;;;;9.18;6.12;;;;;;;8.64;64.56;99809.38;2184635;80;29145;-66
2021/11/05 03:27:55;;;;;;;7.78;5.47;;;;;;;8.64;64.60;99810.70;2161624;82;27689;-66
2021/11/05 03:30:56;;;;;;;7.75;6.08;;;;;;;8.65;64.62;99808.92;2145342;82;30019;-67
2021/11/05 03:33:58;;;;;;;7.70;6.08;;;;;;;8.66;64.65;99813.31;2151810;81;30808;-67
2021/11/05 03:37:00;;;;;;;9.35;6.10;;;;;;;8.67;64.63;99811.05;2150149;82;33016;-67
2021/11/05 03:40:07;;;;;;;9.85;6.35;;;;;;;8.68;64.61;99818.12;2149432;82;30277;-66
2021/11/05 03:43:09;;;;;;;8.78;6.12;;;;;;;8.67;64.51;99821.73;2153779;81;28121;-67
2021/11/05 03:46:12;;;;;;;9.60;6.62;;;;;;;8.70;64.50;99838.05;2219087;79;28514;-66
2021/11/05 03:49:14;;;;;;;12.53;7.05;;;;;;;8.68;64.46;99836.81;2178220;81;31096;-66
2021/11/05 03:52:16;;;;;;;9.75;7.47;;;;;;;8.69;64.59;99838.51;2187818;81;33674;-66
2021/11/05 03:55:18;;;;;;;10.70;6.62;;;;;;;8.71;64.54;99843.80;2191766;80;29379;-65
2021/11/05 03:58:28;;;;;;;9.35;6.47;;;;;;;8.72;64.67;99852.20;2189704;81;27668;-66
2021/11/05 04:01:30;;;;;;;9.13;6.25;;;;;;;8.73;64.62;99858.79;2142423;81;29570;-67
2021/11/05 04:04:32;;;;;;;9.20;5.97;;;;;;;8.74;64.57;99861.01;2191589;80;30862;-68
2021/11/05 04:07:34;;;;;;;7.87;6.10;;;;;;;8.74;64.49;99865.86;2189575;81;34221;-67
2021/11/05 04:10:37;;;;;;;6.70;5.80;;;;;;;8.75;64.58;99869.42;2210788;80;29956;-65
2021/11/05 04:13:39;;;;;;;8.65;6.12;;;;;;;8.75;64.50;99871.60;2178572;81;27674;-69
2021/11/05 04:16:41;;;;;;;10.38;6.35;;;;;;;8.75;64.41;99867.59;2218952;80;29543;-68
2021/11/05 04:19:43;;;;;;;10.43;5.92;;;;;;;8.76;64.44;99867.14;2170620;80;32066;-69
2021/11/05 04:22:45;;;;;;;6.55;5.47;;;;;;;8.74;64.42;99875.21;2225509;80;34042;-64
2021/11/05 04:25:47;;;;;;;8.45;5.62;;;;;;;8.74;64.47;99867.69;2225505;80;30405;-69
2021/11/05 04:28:49;;;;;;;8.65;5.70;;;;;;;8.74;64.44;99873.02;2218644;79;27613;-69
2021/11/05 04:31:51;;;;;;;8.95;6.58;;;;;;;8.74;64.40;99876.55;2192202;80;29720;-69
2021/11/05 04:34:53;;;;;;;7.55;5.25;;;;;;;8.75;64.37;99888.11;2190491;81;31964;-70
2021/11/05 04:37:55;;;;;;;8.75;6.47;;;;;;;8.74;64.45;99888.56;2190945;80;33018;-67
2021/11/05 04:40:57;;;;;;;10.63;5.97;;;;;;;8.75;64.49;99891.63;2202252;80;29818;-66
2021/11/05 04:44:00;;;;;;;9.63;5.90;;;;;;;8.76;64.42;99894.70;2192503;81;27612;-67
2021/11/05 04:47:01;;;;;;;6.50;5.70;;;;;;;8.77;64.40;99896.44;2192685;81;29711;-66
2021/11/05 04:50:05;;;;;;;7.78;5.90;;;;;;;8.75;64.22;99900.13;2189350;81;32282;-67
2021/11/05 04:53:06;;;;;;;8.85;6.08;;;;;;;8.74;64.30;99903.73;2209364;80;34096;-67
2021/11/05 04:56:09;;;;;;;9.95;5.72;;;;;;;8.74;64.32;99906.41;2184446;81;31176;-67
2021/11/05 04:59:11;;;;;;;8.95;6.05;;;;;;;8.74;64.39;99911.75;2221796;80;27712;-67
2021/11/05 05:02:13;;;;;;;6.70;5.62;;;;;;;8.75;64.59;99917.48;2193043;80;29833;-67
2021/11/05 05:05:16;;;;;;;6.20;5.40;;;;;;;8.74;64.38;99916.61;2222097;80;31209;-67
2021/11/05 05:08:18;;;;;;;8.33;5.37;;;;;;;8.75;64.45;99925.02;2184700;81;32767;-68
2021/11/05 05:11:20;;;;;;;7.15;5.65;;;;;;;8.75;64.42;99926.84;2199287;80;29141;-67
2021/11/05 05:14:22;;;;;;;6.78;4.95;;;;;;;8.76;64.39;99936.58;2151198;82;27678;-67
2021/11/05 05:17:24;;;;;;;6.10;5.25;;;;;;;8.78;64.37;99938.68;2192119;81;29719;-68
2021/11/05 05:20:26;;;;;;;6.87;5.35;;;;;;;8.78;64.44;99945.36;2151787;81;32235;-67
2021/11/05 05:23:30;;;;;;;6.22;5.08;;;;;;;8.78;64.36;99949.36;2151019;82;33383;-67
2021/11/05 05:26:32;;;;;;;7.50;5.37;;;;;;;8.78;64.22;99962.72;2117386;82;29022;-67
2021/11/05 05:29:34;;;;;;;8.33;5.30;;;;;;;8.78;64.25;99965.39;2116789;84;27753;-67
2021/11/05 05:32:36;;;;;;;7.95;5.20;;;;;;;8.79;64.34;99968.01;2115520;84;29275;-66
2021/11/05 05:35:38;;;;;;;7.05;4.90;;;;;;;8.81;64.31;99972.81;2118348;82;30838;-66
2021/11/05 05:38:40;;;;;;;9.25;4.90;;;;;;;8.82;64.34;99981.67;2117323;84;33187;-67
2021/11/05 05:41:43;;;;;;;6.90;4.62;;;;;;;8.84;64.31;99977.61;2117188;84;29344;-69
2021/11/05 05:44:44;;;;;;;6.58;4.97;;;;;;;8.85;64.10;99982.87;2117413;82;27642;-67
2021/11/05 05:47:46;;;;;;;6.35;4.60;;;;;;;8.86;64.18;99986.39;2118521;82;29171;-67
2021/11/05 05:50:48;;;;;;;5.87;4.42;;;;;;;8.85;64.08;99982.87;2115570;84;32412;-67
2021/11/05 05:53:50;;;;;;;5.97;4.72;;;;;;;8.86;64.02;99993.07;2115679;84;34051;-68
2021/11/05 05:56:53;;;;;;;4.78;4.28;;;;;;;8.86;64.03;100004.64;2122467;82;30397;-67
2021/11/05 05:59:55;;;;;;;12.63;5.17;;;;;;;8.86;63.97;100007.31;2145993;82;27691;-68
2021/11/05 06:02:57;;;;;;;6.00;4.70;;;;;;;8.86;64.07;100012.66;2133246;82;28421;-67
2021/11/05 06:05:59;;;;;;;6.72;4.47;;;;;;;8.87;63.91;100012.17;2122549;82;31082;-67
2021/11/05 06:09:00;;;;;;;6.97;5.37;;;;;;;8.86;63.93;100024.67;2123975;82;33647;-67
2021/11/05 06:12:03;;;;;;;6.05;4.25;;;;;;;8.87;64.03;100027.75;2121522;82;28979;-68
2021/11/05 06:15:06;;;;;;;5.37;4.08;;;;;;;8.88;64.05;100041.95;2109019;84;27752;-67
2021/11/05 06:18:09;;;;;;;9.68;5.20;;;;;;;8.88;64.01;100044.63;2151265;82;29486;-69
2021/11/05 06:21:10;;;;;;;8.10;6.00;;;;;;;8.90;64.11;100048.98;2107138;82;31014;-68
2021/11/05 06:24:13;;;;;;;8.08;6.12;;;;;;;8.92;63.94;100055.57;2101709;83;33378;-68
2021/11/05 06:27:14;;;;;;;11.45;8.40;;;;;;;8.91;64.13;100064.07;2102642;84;30112;-68
2021/11/05 06:30:16;;;;;;;8.78;7.03;;;;;;;8.92;63.96;100068.48;2137093;82;27938;-67
2021/11/05 06:33:19;;;;;;;10.00;5.28;;;;;;;8.93;64.06;100078.68;2124998;82;28850;-64
2021/11/05 06:36:21;;;;;;;9.53;6.03;;;;;;;8.93;63.85;100083.57;2157807;81;32225;-65
2021/11/05 06:39:22;;;;;;;6.03;4.40;;;;;;;8.93;64.03;100092.92;2149251;82;34179;-65
2021/11/05 06:42:25;;;;;;;6.67;5.50;;;;;;;8.94;63.95;100099.97;2149417;82;29482;-65
2021/11/05 06:45:29;;;;;;;7.83;4.65;;;;;;;8.96;63.94;100103.44;2119225;82;27774;-65
2021/11/05 06:48:31;;;;;;;7.20;4.67;;;;;;;8.96;63.89;100120.80;2189216;81;29881;-66
2021/11/05 06:51:33;;;;;;;9.93;5.22;;;;;;;8.97;64.03;100129.70;2163607;81;31514;-66
2021/11/05 06:54:37;;;;;;;9.38;5.10;;;;;;;8.99;64.04;100132.30;2160103;81;33309;-66
2021/11/05 06:57:39;;;;;;;8.40;5.37;;;;;;;9.02;64.14;100136.17;2118737;82;29088;-66
2021/11/05 07:00:41;;;;;;;9.28;5.72;;;;;;;9.05;64.19;100141.38;2123358;82;28274;-66
2021/11/05 07:03:43;;;;;;;9.08;6.10;;;;;;;9.06;64.17;100147.12;2131358;82;29899;-65
2021/11/05 07:06:45;;;;;;;8.05;5.80;;;;;;;9.08;64.19;100151.45;2123226;82;31070;-65
2021/11/05 07:09:47;;;;;;;11.03;5.70;;;;;;;9.11;64.32;100159.33;2185251;81;34202;-63
2021/11/05 07:12:51;;;;;;;9.35;5.85;;;;;;;9.14;64.17;100168.15;2122805;82;28914;-63
2021/11/05 07:15:52;;;;;;;8.78;5.78;;;;;;;9.15;64.23;100164.05;2104869;84;27797;-65
2021/11/05 07:18:54;;;;;;;8.48;6.08;;;;;;;9.18;64.23;100176.44;2144819;82;27759;-67
2021/11/05 07:22:02;;;;;;;9.23;6.60;;;;;;;9.20;64.28;100178.09;2176737;81;31878;-67
2021/11/05 07:25:09;;;;;;;7.75;5.90;;;;;;;9.21;64.28;100180.27;2127051;83;33801;-67
2021/11/05 07:28:11;;;;;;;9.20;6.17;;;;;;;9.25;64.42;100185.44;2171640;81;29026;-65
2021/11/05 07:31:12;;;;;;;8.33;5.55;;;;;;;9.31;64.42;100188.73;2163872;81;27721;-66
2021/11/05 07:34:14;;;;;;;9.03;5.85;;;;;;;9.34;64.46;100196.17;2148136;82;29471;-65
2021/11/05 07:37:18;;;;;;;11.20;6.20;;;;;;;9.38;64.42;100209.77;2148138;82;32010;-66
2021/11/05 07:40:21;;;;;;;10.05;6.08;;;;;;;9.43;64.44;100208.25;2137749;83;33033;-68
2021/11/05 07:43:23;;;;;;;9.38;6.08;;;;;;;9.48;64.48;100213.37;2148216;82;29036;-66
2021/11/05 07:46:25;;;;;;;7.05;5.47;;;;;;;9.49;64.23;100214.63;2148362;82;27679;-65
2021/11/05 07:49:27;;;;;;;8.10;6.30;;;;;;;9.50;64.24;100223.53;2146522;82;28657;-64
2021/11/05 07:52:28;;;;;;;10.53;6.40;;;;;;;9.51;64.39;100234.63;2148351;82;31013;-63
2021/11/05 07:55:33;;;;;;;13.15;7.00;;;;;;;9.54;64.52;100235.34;2137318;83;34160;-62
2021/11/05 07:58:35;;;;;;;12.90;6.92;;;;;;;9.56;64.53;100240.16;2148372;82;29824;-63
2021/11/05 08:01:37;;;;;;;18.25;7.60;;;;;;;9.59;64.67;100244.48;2148020;82;27735;-63
2021/11/05 08:04:39;;;;;;;13.35;7.03;;;;;;;9.62;64.78;100248.81;2147715;82;29912;-64
2021/11/05 08:07:42;;;;;;;10.32;6.40;;;;;;;9.65;64.74;100252.23;2147731;82;31845;-66
2021/11/05 08:10:44;;;;;;;14.28;7.60;;;;;;;9.69;64.82;100256.48;2137759;83;33015;-63
2021/11/05 08:13:47;;;;;;;13.00;8.10;;;;;;;9.70;64.68;100257.36;2147948;82;30287;-65
2021/11/05 08:16:49;;;;;;;11.83;6.75;;;;;;;9.71;64.63;100257.28;2148584;82;27613;-63
2021/11/05 08:19:51;;;;;;;10.15;6.50;;;;;;;9.73;64.65;100267.93;2149510;82;29549;-66
2021/11/05 08:22:53;;;;;;;15.00;7.28;;;;;;;9.75;64.52;100270.52;2188034;81;32217;-63
2021/11/05 08:25:56;;;;;;;12.10;6.45;;;;;;;9.75;64.54;100271.86;2195349;81;34338;-63
2021/11/05 08:29:00;;;;;;;12.55;6.70;;;;;;;9.77;64.55;100282.88;2193774;81;29027;-65
2021/11/05 08:32:03;;;;;;;9.70;6.70;;;;;;;9.80;64.47;100281.88;2195641;81;27663;-64
2021/11/05 08:35:07;;;;;;;12.60;7.03;;;;;;;9.81;64.38;100288.97;2190722;81;29911;-64
2021/11/05 08:38:15;;;;;;;10.43;5.87;;;;;;;9.83;64.47;100287.09;2160459;81;31253;-66
2021/11/05 08:41:17;;;;;;;11.22;6.75;;;;;;;9.84;64.36;100300.39;2159770;81;34212;-64
2021/11/05 08:44:17;;;;;;;13.50;8.00;;;;;;;9.84;64.36;100307.08;2160064;81;30278;-65
2021/11/05 08:47:20;;;;;;;9.88;5.65;;;;;;;9.86;64.59;100313.23;2188472;81;27701;-65
2021/11/05 08:50:25;;;;;;;14.80;7.20;;;;;;;9.91;64.56;100315.69;2159623;81;30082;-64
2021/11/05 08:53:27;;;;;;;;;;;;;;;9.99;64.55;100312.65;2162615;81;32112;-63
2021/11/05 08:56:28;;;;;;;12.80;6.67;;;;;;;10.07;64.43;100313.17;2179175;81;34019;-65
2021/11/05 08:59:31;;;;;;;8.93;5.95;;;;;;;10.14;64.66;100321.29;2191067;81;30178;-62
2021/11/05 09:02:33;;;;;;;8.25;5.17;;;;;;;10.16;64.38;100324.77;2165029;81;27778;-63
2021/11/05 09:05:37;;;;;;;7.75;5.72;;;;;;;10.16;64.48;100331.45;2166866;81;29547;-63
2021/11/05 09:08:42;;;;;;;7.10;5.00;;;;;;;10.22;64.36;100342.83;2160574;82;31116;-62
2021/11/05 09:11:44;;;;;;;9.10;5.25;;;;;;;10.25;64.54;100342.69;2160043;81;34189;-64
2021/11/05 09:14:47;;;;;;;17.37;5.53;;;;;;;10.29;64.47;100354.96;2190614;81;29183;-66
2021/11/05 09:17:52;;;;;;;9.85;5.70;;;;;;;10.36;64.55;100356.42;2164159;81;27675;-65
2021/11/05 09:20:54;;;;;;;10.45;5.65;;;;;;;10.42;64.47;100356.63;2164154;81;29449;-65
2021/11/05 09:23:56;;;;;;;7.55;4.87;;;;;;;10.46;64.31;100360.90;2172590;81;31829;-67
2021/11/05 09:26:58;;;;;;;9.90;5.17;;;;;;;10.52;64.46;100377.14;2159587;81;32993;-63
2021/11/05 09:30:01;;;;;;;11.40;6.03;;;;;;;10.56;64.32;100384.09;2159991;81;30317;-66
2021/11/05 09:33:03;;;;;;;7.00;5.00;;;;;;;10.60;64.20;100378.50;2189452;81;27654;-64
2021/11/05 09:36:06;;;;;;;6.87;5.08;;;;;;;10.64;64.21;100376.54;2195373;81;29330;-67
2021/11/05 09:39:09;;;;;;;6.33;4.37;;;;;;;10.64;64.09;100382.78;2195352;81;31901;-66
2021/11/05 09:42:11;;;;;;;7.05;4.58;;;;;;;10.61;64.01;100378.91;2176836;81;34343;-66
2021/11/05 09:45:16;;;;;;;5.72;4.15;;;;;;;10.59;63.93;100388.82;2159005;81;29875;-65
2021/11/05 09:48:21;;;;;;;7.08;4.42;;;;;;;10.60;63.92;100384.32;2159915;81;27743;-66
2021/11/05 09:51:23;;;;;;;4.95;3.62;;;;;;;10.62;63.85;100390.47;2168714;81;29027;-66
2021/11/05 09:54:28;;;;;;;4.12;3.52;;;;;;;10.58;63.86;100393.78;2195128;81;31624;-66
2021/11/05 09:57:30;;;;;;;4.60;3.77;;;;;;;10.61;63.74;100400.34;2195807;81;33125;-66
2021/11/05 10:00:32;;;;;;;6.42;2.90;;;;;;;10.60;63.69;100403.07;2195434;81;30238;-64
2021/11/05 10:03:34;;;;;;;3.72;2.62;;;;;;;10.57;63.54;100404.09;2162085;81;27708;-66
2021/11/05 10:06:37;;;;;;;5.40;2.98;;;;;;;10.53;63.58;100403.84;2160535;81;28656;-67
2021/11/05 10:09:45;;;;;;;4.53;2.80;;;;;;;10.54;63.51;100409.59;2160029;82;31505;-65
2021/11/05 10:13:03;;;;;;;4.17;3.10;;;;;;;10.52;63.36;100414.64;2184186;81;34159;-64
2021/11/05 10:16:10;;;;;;;4.97;3.37;;;;;;;10.48;63.40;100416.13;2168836;81;29387;-63
2021/11/05 10:19:15;;;;;;;5.70;3.35;;;;;;;10.48;63.54;100426.83;2159478;81;27628;-65
2021/11/05 10:22:47;;;;;;;6.87;4.10;;;;;;;10.48;63.48;100430.85;2182675;80;29541;-64
2021/11/05 10:25:50;;;;;;;7.55;4.15;;;;;;;10.51;63.66;100428.48;2178501;81;31064;-63
2021/11/05 10:28:52;;;;;;;7.45;3.85;;;;;;;10.56;63.61;100426.47;2219379;80;32939;-65
2021/11/05 10:32:08;;;;;;;5.35;3.05;;;;;;;10.67;63.70;100424.63;2167857;81;29083;-64
2021/11/05 10:35:15;;;;;;;6.90;3.05;;;;;;;10.76;63.35;100425.98;2150466;81;27721;-64
2021/11/05 10:38:18;;;;;;;4.55;2.52;;;;;;;10.81;63.21;100436.02;2190346;81;29010;-66
2021/11/05 10:41:23;;;;;;;7.97;3.85;;;;;;;10.89;63.26;100432.97;2173620;81;32235;-65
2021/11/05 10:44:25;;;;;;;6.37;2.55;;;;;;;10.92;62.89;100429.66;2150249;82;33053;-66
2021/11/05 10:47:27;;;;;;;4.72;1.70;;;;;;;10.89;62.68;100438.33;2150249;82;29793;-66
2021/11/05 10:50:50;;;;;;;5.83;2.00;;;;;;;10.81;62.78;100444.52;2189948;81;27726;-67
2021/11/05 10:53:55;;;;;;;2.90;1.92;;;;;;;10.77;63.28;100458.55;2127583;82;29489;-65
2021/11/05 10:56:57;;;;;;;6.42;3.12;;;;;;;10.68;63.58;100452.27;2115905;84;31215;-66
2021/11/05 11:00:30;;;;;;;5.08;2.50;;;;;;;10.58;63.62;100451.38;2113572;84;34172;-65
2021/11/05 11:03:33;;;;;;;3.42;2.02;;;;;;;10.57;64.21;100460.84;2169110;81;28926;-66
2021/11/05 11:06:44;;;;;;;2.15;1.60;;;;;;;10.57;64.45;100465.71;2150835;82;28211;-66
2021/11/05 11:09:46;;;;;;;3.05;2.22;;;;;;;10.53;64.55;100470.81;2126363;82;29930;-66
2021/11/05 11:12:51;;;;;;;5.67;2.80;;;;;;;10.56;64.60;100475.17;2131843;82;32082;-66
2021/11/05 11:15:53;;;;;;;4.72;2.70;;;;;;;10.58;64.63;100472.81;2081119;85;34229;-66
2021/11/05 11:19:05;;;;;;;4.85;2.87;;;;;;;10.69;64.84;100483.03;2081687;85;30294;-65
2021/11/05 11:22:09;;;;;;;3.17;1.42;;;;;;;10.81;64.58;100475.34;2083142;83;27740;-64
2021/11/05 11:25:11;;;;;;;1.53;1.13;;;;;;;10.94;64.40;100480.05;2074975;84;28680;-64
2021/11/05 11:28:13;;;;;;;2.17;1.20;;;;;;;11.06;63.96;100483.06;2142262;83;31025;-65
2021/11/05 11:31:17;;;;;;;2.08;0.90;;;;;;;11.16;63.83;100475.44;2189580;80;32956;-66
2021/11/05 11:34:20;;;;;;;1.37;1.10;;;;;;;11.22;63.44;100488.06;2181432;81;29854;-65
2021/11/05 11:37:26;;;;;;;2.45;1.35;;;;;;;11.29;63.36;100485.95;2173726;80;27718;-65
2021/11/05 11:40:31;;;;;;;1.40;1.07;;;;;;;11.36;63.23;100483.38;2174749;80;28663;-66
2021/11/05 11:43:34;;;;;;;2.85;1.40;;;;;;;11.45;63.19;100490.55;2174233;81;31070;-65
2021/11/05 11:47:05;;;;;;;3.15;1.35;;;;;;;11.49;63.17;100492.13;2198384;80;33850;-65
2021/11/05 11:50:24;;;;;;;1.62;1.10;;;;;;;11.48;62.94;100497.98;2164226;81;29235;-63
2021/11/05 11:53:31;;;;;;;2.15;1.70;;;;;;;11.52;62.64;100495.52;2190276;81;27709;-65
2021/11/05 11:56:39;;;;;;;2.33;1.40;;;;;;;11.45;62.35;100506.19;2216747;80;29042;-65
2021/11/05 11:59:44;;;;;;;1.37;1.20;;;;;;;11.33;62.60;100513.51;2168277;81;31088;-66
2021/11/05 12:02:52;;;;;;;3.03;1.20;;;;;;;11.24;62.45;100522.88;2150644;82;33028;-65
2021/11/05 12:06:00;;;;;;;1.80;1.17;;;;;;;11.12;62.63;100528.35;2189643;81;29072;-64
2021/11/05 12:09:08;;;;;;;7.22;4.60;;;;;;;11.06;62.83;100532.20;2198362;80;27943;-64
2021/11/05 12:12:28;;;;;;;38.73;20.68;;;;;;;11.03;62.69;100535.03;2174303;81;29680;-65
2021/11/05 12:15:30;;;;;;;12.68;7.33;;;;;;;11.11;62.86;100531.98;2198949;80;31986;-65
2021/11/05 12:18:32;;;;;;;11.50;5.78;;;;;;;11.18;62.79;100535.23;2189574;81;34245;-65
2021/11/05 12:21:51;;;;;;;24.60;11.10;;;;;;;11.20;62.53;100530.66;2188029;80;29063;-65
2021/11/05 12:25:20;;;;;;;13.55;7.75;;;;;;;11.30;62.70;100535.11;2174063;81;27691;-66
2021/11/05 12:28:43;;;;;;;4.58;2.65;;;;;;;11.41;62.47;100546.17;2146020;82;27685;-64
2021/11/05 12:31:58;;;;;;;7.08;4.22;;;;;;;11.45;61.84;100549.56;2156974;81;31105;-64
2021/11/05 12:35:12;;;;;;;5.28;2.15;;;;;;;11.45;62.07;100561.18;2176987;81;34696;-65
2021/11/05 12:38:23;;;;;;;4.55;3.50;;;;;;;11.36;61.66;100563.84;2176230;81;29854;-65
2021/11/05 12:41:55;;;;;;;4.08;3.17;;;;;;;11.27;61.80;100578.16;2166565;81;27545;-65
2021/11/05 12:45:03;;;;;;;2.15;1.62;;;;;;;11.19;62.07;100582.07;2171916;81;28694;-65
2021/11/05 12:48:06;;;;;;;3.67;1.80;;;;;;;11.05;62.33;100584.09;2137263;82;31322;-65
2021/11/05 12:51:11;;;;;;;3.87;2.90;;;;;;;10.96;62.77;100591.69;2156036;81;33550;-65
2021/11/05 12:54:21;;;;;;;4.70;3.50;;;;;;;10.84;63.21;100597.14;2174793;81;29620;-64
2021/11/05 12:57:23;;;;;;;3.12;2.30;;;;;;;10.76;63.60;100601.03;2144021;82;27585;-64
2021/11/05 13:00:31;;;;;;;7.47;5.28;;;;;;;10.62;63.73;100601.67;2149242;81;29054;-65
2021/11/05 13:03:35;;;;;;;6.58;4.10;;;;;;;10.56;64.17;100609.12;2176809;81;31228;-65
2021/11/05 13:06:59;;;;;;;4.90;3.55;;;;;;;10.59;64.39;100611.18;2176679;81;33033;-65
2021/11/05 13:10:00;;;;;;;4.20;3.00;;;;;;;10.60;64.48;100610.70;2175904;81;29692;-65
2021/11/05 13:13:06;;;;;;;4.70;2.65;;;;;;;10.66;64.60;100620.30;2148303;82;28053;-65
2021/11/05 13:16:13;;;;;;;8.38;3.85;;;;;;;10.67;64.50;100620.70;2147980;82;30014;-65
2021/11/05 13:19:17;;;;;;;2.00;1.47;;;;;;;10.72;64.59;100629.38;2148225;82;31005;-63
2021/11/05 13:22:21;;;;;;;1.65;1.17;;;;;;;10.68;64.19;100623.75;2173451;80;33001;-64
2021/11/05 13:25:32;;;;;;;1.82;1.60;;;;;;;10.66;64.10;100637.23;2162898;81;29066;-64
2021/11/05 13:28:35;;;;;;;4.97;2.58;;;;;;;10.61;64.30;100634.77;2157963;81;27924;-65
2021/11/05 13:31:37;;;;;;;4.33;1.90;;;;;;;10.58;64.35;100636.71;2177715;81;29919;-65
2021/11/05 13:34:39;;;;;;;6.62;2.30;;;;;;;10.51;64.07;100637.91;2162952;81;31605;-65
2021/11/05 13:37:41;;;;;;;9.28;5.50;;;;;;;10.42;64.29;100646.77;2165573;80;34255;-64
2021/11/05 13:44:02;;;;;;;6.15;3.47;;;;;;;10.20;64.38;100652.11;2125464;82;27697;-62
2021/11/05 13:47:19;;;;;;;9.85;4.33;;;;;;;10.08;64.55;100653.52;2082470;85;28536;-62
2021/11/05 13:50:22;;;;;;;14.50;6.25;;;;;;;10.02;64.92;100649.75;2107532;83;31045;-61
2021/11/05 13:53:24;;;;;;;1.98;1.67;;;;;;;9.95;64.83;100656.28;2116323;82;33784;-63
2021/11/05 13:56:34;;;;;;;4.62;2.22;;;;;;;9.86;64.95;100667.79;2145712;82;29848;-67
2021/11/05 13:59:37;;;;;;;8.53;4.12;;;;;;;9.76;65.03;100665.09;2083302;83;27774;-64
2021/11/05 14:02:41;;;;;;;8.68;4.22;;;;;;;9.69;65.24;100678.30;2053029;85;29910;-64
2021/11/05 14:05:43;;;;;;;6.78;3.17;;;;;;;9.60;65.32;100678.19;2123667;82;31239;-64
2021/11/05 14:08:54;;;;;;;9.38;4.40;;;;;;;9.53;65.42;100680.24;2094520;84;33809;-63
2021/11/05 14:11:57;;;;;;;11.22;6.33;;;;;;;9.47;65.70;100690.31;2139116;82;27943;-61
2021/11/05 14:15:00;;;;;;;8.20;6.05;;;;;;;9.41;65.81;100693.62;2085966;83;27709;-64
2021/11/05 14:18:02;;;;;;;4.58;3.37;;;;;;;9.32;65.97;100700.67;2098302;84;29886;-64
2021/11/05 14:21:24;;;;;;;5.80;3.55;;;;;;;9.27;66.27;100702.64;2084632;85;32204;-63
2021/11/05 14:24:37;;;;;;;8.00;4.83;;;;;;;9.22;66.20;100701.48;2084329;84;33010;-65
2021/11/05 14:27:39;;;;;;;11.68;6.47;;;;;;;9.20;66.59;100707.34;2108905;82;29090;-63
2021/11/05 14:30:42;;;;;;;9.83;5.05;;;;;;;9.19;66.74;100703.38;2147873;82;27809;-63